Time;durP1;ratioP1;P1;durP2;ratioP2;P2;SDS_P1;SDS_P2;PMS_P1;PMS_P2;Temp;Humidity;BMP_temperature;BMP_pressure;BME280_temperature;BME280_humidity;BME280_pressure;Samples;Min_cycle;Max_cycle;Signal;HPM_P1;HPM_P2
2023/01/04 00:02:17;;;;;;;7.60;3.00;;;7.30;99.90;;;;;;5057784;28;20427;-75
2023/01/04 00:05:03;;;;;;;4.50;2.93;;;7.20;99.90;;;;;;5048174;28;20468;-75
2023/01/04 00:07:49;;;;;;;4.63;2.70;;;7.20;99.90;;;;;;5051766;28;20427;-75
2023/01/04 00:10:36;;;;;;;3.30;2.40;;;7.10;99.90;;;;;;5060796;28;20479;-75
2023/01/04 00:13:22;;;;;;;5.50;3.47;;;7.00;99.90;;;;;;5045778;28;20868;-75
2023/01/04 00:16:10;;;;;;;16.93;3.50;;;7.00;99.90;;;;;;5052603;28;20803;-75
2023/01/04 00:18:56;;;;;;;8.13;3.70;;;6.90;99.90;;;;;;5043415;28;20962;-75
2023/01/04 00:21:42;;;;;;;5.50;3.90;;;7.00;99.90;;;;;;5058591;28;20549;-75
2023/01/04 00:24:28;;;;;;;10.80;5.40;;;7.00;99.90;;;;;;5041700;28;20513;-75
2023/01/04 00:27:15;;;;;;;8.05;5.57;;;7.00;99.90;;;;;;5057663;28;20422;-75
2023/01/04 00:30:00;;;;;;;10.00;7.37;;;7.10;99.90;;;;;;5058753;28;20270;-75
2023/01/04 00:32:46;;;;;;;12.30;8.73;;;7.20;99.90;;;;;;5054465;28;20902;-75
2023/01/04 00:35:33;;;;;;;15.63;9.63;;;7.30;99.90;;;;;;5053649;28;20857;-75
2023/01/04 00:38:19;;;;;;;14.83;10.57;;;7.50;99.90;;;;;;5066811;28;20967;-75
2023/01/04 00:41:06;;;;;;;22.00;12.90;;;7.60;99.90;;;;;;5050480;28;20495;-75
2023/01/04 00:43:53;;;;;;;16.30;11.93;;;7.80;99.90;;;;;;5048056;28;20471;-75
2023/01/04 00:46:40;;;;;;;15.03;11.10;;;7.90;99.90;;;;;;5051474;28;20814;-74
2023/01/04 00:49:26;;;;;;;14.80;11.20;;;8.00;99.90;;;;;;5061907;28;20480;-74
2023/01/04 00:52:11;;;;;;;18.90;13.03;;;8.00;99.90;;;;;;5056783;28;20450;-74
2023/01/04 00:54:57;;;;;;;19.03;13.63;;;8.10;99.90;;;;;;5058322;28;20466;-74
2023/01/04 00:57:43;;;;;;;17.50;13.03;;;8.10;99.90;;;;;;5057276;28;20561;-74
2023/01/04 01:00:30;;;;;;;16.80;12.60;;;8.10;99.90;;;;;;5059098;28;20442;-75
2023/01/04 01:03:16;;;;;;;21.83;14.47;;;8.10;99.90;;;;;;5054739;28;20968;-74
2023/01/04 01:06:02;;;;;;;18.30;14.17;;;8.10;99.90;;;;;;5054388;28;20468;-75
2023/01/04 01:08:47;;;;;;;19.00;13.77;;;8.00;99.90;;;;;;5053899;28;20509;-75
2023/01/04 01:11:35;;;;;;;19.50;13.27;;;8.00;99.90;;;;;;5051166;28;21116;-74
2023/01/04 01:14:22;;;;;;;15.10;12.03;;;8.10;99.90;;;;;;5068032;22;20567;-73
2023/01/04 01:17:09;;;;;;;17.07;12.70;;;8.00;99.90;;;;;;5050096;28;20448;-73
2023/01/04 01:19:55;;;;;;;18.27;12.97;;;8.10;99.90;;;;;;5053161;28;20530;-73
2023/01/04 01:22:41;;;;;;;20.47;12.80;;;8.10;99.90;;;;;;5051489;28;20586;-73
2023/01/04 01:25:27;;;;;;;14.93;11.30;;;8.10;99.90;;;;;;5043723;28;21090;-73
2023/01/04 01:28:13;;;;;;;14.43;10.87;;;8.00;99.90;;;;;;5052574;28;20606;-73
2023/01/04 01:30:59;;;;;;;17.47;11.47;;;7.90;99.90;;;;;;5049658;28;20475;-73
2023/01/04 01:33:48;;;;;;;15.23;11.53;;;8.00;99.90;;;;;;5039721;28;20859;-73
2023/01/04 01:36:33;;;;;;;16.37;11.10;;;8.00;99.90;;;;;;5053245;28;20502;-74
2023/01/04 01:39:19;;;;;;;15.53;11.63;;;8.00;99.90;;;;;;5053215;28;20586;-73
2023/01/04 01:42:05;;;;;;;14.53;10.60;;;8.00;99.90;;;;;;5048461;28;20447;-72
2023/01/04 01:45:01;;;;;;;14.00;10.90;;;7.90;99.90;;;;;;5049129;28;20462;-74
2023/01/04 01:47:50;;;;;;;17.03;10.10;;;7.90;99.90;;;;;;5053812;28;20451;-73
2023/01/04 01:50:41;;;;;;;15.30;9.20;;;7.90;99.90;;;;;;5053023;28;20522;-74
2023/01/04 01:53:28;;;;;;;12.63;8.90;;;7.90;99.90;;;;;;5049619;28;20938;-73
2023/01/04 01:56:17;;;;;;;14.80;8.57;;;7.80;99.90;;;;;;5048749;28;20467;-73
2023/01/04 01:59:03;;;;;;;10.57;8.17;;;7.80;99.90;;;;;;5053288;28;20450;-73
2023/01/04 02:01:49;;;;;;;10.70;8.20;;;7.80;99.90;;;;;;5044293;28;20444;-73
2023/01/04 02:04:37;;;;;;;11.43;7.10;;;7.70;99.90;;;;;;5049865;28;20770;-73
2023/01/04 02:07:26;;;;;;;10.10;7.30;;;7.80;99.90;;;;;;5053056;28;20518;-73
2023/01/04 02:10:12;;;;;;;8.83;6.77;;;7.70;99.90;;;;;;5049038;28;20672;-74
2023/01/04 02:13:00;;;;;;;13.13;6.57;;;7.70;99.90;;;;;;5041344;28;20447;-73
2023/01/04 02:15:59;;;;;;;9.53;6.40;;;7.70;99.90;;;;;;5052406;28;20854;-73
2023/01/04 02:18:53;;;;;;;5.90;5.30;;;7.70;99.90;;;;;;5050274;28;20939;-73
2023/01/04 02:21:52;;;;;;;8.17;5.97;;;7.70;99.90;;;;;;5043342;28;20544;-73
2023/01/04 02:25:10;;;;;;;11.20;5.47;;;7.70;99.90;;;;;;5048484;28;20463;-73
2023/01/04 02:27:59;;;;;;;9.13;4.63;;;7.70;99.90;;;;;;5047367;28;20436;-73
2023/01/04 02:31:16;;;;;;;6.77;4.97;;;7.60;99.90;;;;;;5052729;28;20596;-73
2023/01/04 02:34:08;;;;;;;9.83;5.47;;;7.60;99.90;;;;;;5045933;28;20656;-73
2023/01/04 02:36:59;;;;;;;13.90;5.23;;;7.60;99.90;;;;;;5051245;28;20459;-73
2023/01/04 02:39:53;;;;;;;7.40;5.20;;;7.60;99.90;;;;;;5051368;28;20462;-73
2023/01/04 02:45:54;;;;;;;7.50;4.50;;;7.60;99.90;;;;;;5050311;28;20471;-73
2023/01/04 02:51:45;;;;;;;7.33;5.00;;;7.70;99.90;;;;;;5045768;28;20467;-73
2023/01/04 02:54:32;;;;;;;7.90;5.30;;;7.70;99.90;;;;;;5052963;28;20757;-73
2023/01/04 02:57:42;;;;;;;10.37;5.40;;;7.70;99.90;;;;;;5051634;28;20561;-73
2023/01/04 03:06:14;;;;;;;6.57;5.10;;;7.70;99.90;;;;;;5054982;28;20555;-73
2023/01/04 03:07:10;;;;;;;5.80;4.40;;;7.80;99.90;;;;;;5053360;28;20446;-73
2023/01/04 03:10:06;;;;;;;6.10;4.83;;;7.80;99.90;;;;;;5049227;28;20472;-73
2023/01/04 03:12:59;;;;;;;7.03;4.80;;;7.90;99.90;;;;;;5043525;28;20452;-73
2023/01/04 03:15:50;;;;;;;6.30;5.03;;;8.00;99.90;;;;;;5055316;28;21016;-73
2023/01/04 03:18:40;;;;;;;10.10;5.90;;;8.00;99.90;;;;;;5054592;28;20447;-73
2023/01/04 03:21:28;;;;;;;7.17;5.80;;;8.00;99.90;;;;;;5045326;28;20444;-73
2023/01/04 03:36:49;;;;;;;5.53;4.03;;;8.00;99.90;;;;;;5046791;28;20446;-73
2023/01/04 03:49:14;;;;;;;5.87;3.37;;;8.10;99.90;;;;;;5050208;28;20440;-73
2023/01/04 03:52:04;;;;;;;7.17;2.90;;;8.10;99.90;;;;;;5042108;28;20470;-73
2023/01/04 03:54:50;;;;;;;7.37;3.20;;;8.10;99.90;;;;;;5052413;28;20552;-73
2023/01/04 03:57:36;;;;;;;5.40;3.10;;;8.10;99.90;;;;;;5056595;28;20991;-73
2023/01/04 04:00:22;;;;;;;6.47;3.20;;;8.20;99.90;;;;;;5049142;28;20443;-73
2023/01/04 04:03:08;;;;;;;5.13;3.20;;;8.20;99.90;;;;;;5048071;28;20452;-73
2023/01/04 04:08:58;;;;;;;5.40;3.23;;;8.20;99.90;;;;;;5054401;28;20447;-73
2023/01/04 04:11:44;;;;;;;6.43;3.10;;;8.20;99.90;;;;;;5044853;28;20572;-73
2023/01/04 04:14:30;;;;;;;5.27;3.37;;;8.10;99.90;;;;;;5048342;28;20483;-73
2023/01/04 04:17:15;;;;;;;8.30;3.20;;;8.20;99.90;;;;;;5053166;28;20998;-73
2023/01/04 04:20:01;;;;;;;5.80;2.63;;;8.20;99.90;;;;;;5053998;28;20499;-73
2023/01/04 04:22:47;;;;;;;6.33;2.97;;;8.40;99.90;;;;;;5047685;28;21006;-73
2023/01/04 04:25:34;;;;;;;3.17;2.33;;;8.30;99.90;;;;;;5044651;28;20455;-73
2023/01/04 04:28:20;;;;;;;3.80;2.60;;;8.40;99.90;;;;;;5052206;28;20462;-73
2023/01/04 04:31:05;;;;;;;5.30;2.77;;;8.40;99.90;;;;;;5043375;28;20482;-73
2023/01/04 04:33:51;;;;;;;4.13;3.03;;;8.40;99.90;;;;;;5054134;28;20529;-73
2023/01/04 04:36:37;;;;;;;5.37;2.97;;;8.40;99.90;;;;;;5054895;28;20452;-74
2023/01/04 04:39:23;;;;;;;10.50;3.10;;;8.30;99.90;;;;;;5053349;28;20550;-73
2023/01/04 04:42:09;;;;;;;8.63;3.13;;;8.30;99.90;;;;;;5048058;28;20938;-73
2023/01/04 04:44:55;;;;;;;6.23;3.00;;;8.30;99.90;;;;;;5051795;28;20574;-73
2023/01/04 04:47:40;;;;;;;6.73;2.90;;;8.20;99.90;;;;;;5052057;28;20451;-73
2023/01/04 04:50:26;;;;;;;3.90;2.80;;;8.20;99.90;;;;;;5042273;28;21092;-73
2023/01/04 04:53:12;;;;;;;5.20;3.50;;;8.30;99.90;;;;;;5052422;28;20417;-73
2023/01/04 04:55:58;;;;;;;5.70;3.27;;;8.20;99.90;;;;;;5050292;28;20475;-73
2023/01/04 04:58:45;;;;;;;11.90;3.43;;;8.10;99.90;;;;;;5049702;28;20446;-73
2023/01/04 05:01:31;;;;;;;5.30;3.87;;;8.10;99.90;;;;;;5047188;28;20790;-73
2023/01/04 05:04:18;;;;;;;5.83;4.30;;;8.00;99.90;;;;;;5054600;28;20439;-74
2023/01/04 05:07:04;;;;;;;8.90;5.67;;;8.10;99.90;;;;;;5051215;28;21075;-73
2023/01/04 05:09:49;;;;;;;10.57;5.33;;;7.90;99.90;;;;;;5052782;28;20443;-73
2023/01/04 05:15:41;;;;;;;9.03;6.07;;;7.90;99.90;;;;;;5043534;28;20541;-74
2023/01/04 05:18:27;;;;;;;7.93;5.67;;;7.90;99.90;;;;;;5049305;28;20828;-73
2023/01/04 05:21:13;;;;;;;7.30;5.43;;;7.90;99.90;;;;;;5041307;28;20955;-73
2023/01/04 05:23:59;;;;;;;10.30;6.50;;;7.90;99.90;;;;;;5051464;28;20819;-73
2023/01/04 05:26:44;;;;;;;9.37;6.53;;;7.90;99.90;;;;;;5051512;28;20426;-73
2023/01/04 05:32:35;;;;;;;9.27;5.77;;;7.70;99.90;;;;;;5047918;28;20560;-73
2023/01/04 05:35:20;;;;;;;9.47;6.43;;;7.70;99.90;;;;;;5050697;28;20495;-73
2023/01/04 05:38:06;;;;;;;17.03;6.97;;;7.80;99.90;;;;;;5051001;28;20434;-73
2023/01/04 05:40:52;;;;;;;10.00;6.90;;;7.80;99.90;;;;;;5039235;28;20455;-73
2023/01/04 05:43:38;;;;;;;10.27;5.80;;;7.80;99.90;;;;;;5050461;28;20446;-73
2023/01/04 05:46:24;;;;;;;10.90;7.07;;;7.90;99.90;;;;;;5051009;28;20462;-73
2023/01/04 05:49:11;;;;;;;10.80;7.63;;;7.70;99.90;;;;;;5046396;28;20453;-73
2023/01/04 05:51:56;;;;;;;12.20;7.20;;;7.70;99.90;;;;;;5051037;28;20517;-74
2023/01/04 05:54:42;;;;;;;11.07;7.43;;;7.80;99.90;;;;;;5053721;28;20481;-73
2023/01/04 05:57:28;;;;;;;12.60;7.07;;;7.70;99.90;;;;;;5048119;28;20448;-73
2023/01/04 06:00:14;;;;;;;9.60;6.60;;;7.80;99.90;;;;;;5043045;28;20451;-73
2023/01/04 06:03:00;;;;;;;9.60;6.60;;;7.80;99.90;;;;;;5047616;28;20446;-73
2023/01/04 06:05:50;;;;;;;12.27;7.20;;;7.70;99.90;;;;;;5052842;28;20525;-73
2023/01/04 06:08:36;;;;;;;11.20;7.23;;;7.70;99.90;;;;;;5056010;28;20493;-73
2023/01/04 06:11:22;;;;;;;12.53;7.87;;;7.70;99.90;;;;;;5051119;28;20471;-73
2023/01/04 06:14:08;;;;;;;12.80;7.87;;;7.70;99.90;;;;;;5054190;28;20450;-72
2023/01/04 06:16:53;;;;;;;12.50;8.57;;;7.80;99.90;;;;;;5049987;28;20443;-72
2023/01/04 06:19:39;;;;;;;12.47;7.67;;;7.80;99.90;;;;;;5048193;28;21126;-73
2023/01/04 06:22:27;;;;;;;9.53;7.40;;;7.70;99.90;;;;;;5054500;28;20558;-73
2023/01/04 06:25:13;;;;;;;16.50;7.60;;;7.70;99.90;;;;;;5058027;28;20471;-73
2023/01/04 06:27:58;;;;;;;10.43;7.07;;;7.70;99.90;;;;;;5052276;28;20803;-73
2023/01/04 06:30:44;;;;;;;10.77;7.27;;;7.70;99.90;;;;;;5044242;28;20447;-73
2023/01/04 06:33:30;;;;;;;12.40;7.10;;;7.70;99.90;;;;;;5052635;28;20442;-73
2023/01/04 06:36:15;;;;;;;9.00;5.80;;;7.80;99.90;;;;;;5056894;28;21000;-72
2023/01/04 06:39:02;;;;;;;9.00;6.63;;;7.80;99.90;;;;;;5053445;28;20450;-73
2023/01/04 06:41:48;;;;;;;8.87;6.00;;;7.70;99.90;;;;;;5048153;28;20448;-73
2023/01/04 06:44:34;;;;;;;9.27;6.30;;;7.80;99.90;;;;;;5058830;28;20765;-73
2023/01/04 06:47:19;;;;;;;7.30;5.73;;;7.80;99.90;;;;;;5047940;28;20819;-73
2023/01/04 06:50:05;;;;;;;10.23;6.33;;;7.80;99.90;;;;;;5044472;28;20446;-73
2023/01/04 06:52:51;;;;;;;9.67;6.10;;;7.80;99.90;;;;;;5060721;28;20627;-73
2023/01/04 06:55:38;;;;;;;11.10;5.40;;;7.80;99.90;;;;;;5048815;28;20834;-73
2023/01/04 06:58:23;;;;;;;12.00;6.00;;;7.80;99.90;;;;;;5053752;28;20450;-72
2023/01/04 07:01:09;;;;;;;7.57;5.30;;;7.80;99.90;;;;;;5053162;28;20455;-72
2023/01/04 07:03:54;;;;;;;7.43;4.63;;;7.80;99.90;;;;;;5056273;28;20525;-72
2023/01/04 07:06:40;;;;;;;7.57;5.27;;;7.90;99.90;;;;;;5049794;28;20806;-73
2023/01/04 07:09:26;;;;;;;10.90;5.67;;;8.00;99.90;;;;;;5050739;28;20819;-73
2023/01/04 07:12:13;;;;;;;7.93;5.13;;;8.00;99.90;;;;;;5055044;28;20843;-72
2023/01/04 07:14:58;;;;;;;9.27;5.30;;;7.90;99.90;;;;;;5053163;28;20789;-72
2023/01/04 07:17:46;;;;;;;9.33;5.80;;;8.00;99.90;;;;;;5055580;28;20485;-72
2023/01/04 07:20:32;;;;;;;14.13;4.80;;;8.00;99.90;;;;;;5043856;28;20947;-73
2023/01/04 07:23:18;;;;;;;11.20;5.60;;;7.90;99.90;;;;;;5052155;28;20490;-72
2023/01/04 07:26:03;;;;;;;9.33;4.97;;;7.90;99.90;;;;;;5050547;28;20844;-72
2023/01/04 07:31:54;;;;;;;7.53;4.90;;;7.90;99.90;;;;;;5049784;28;20453;-72
2023/01/04 07:34:41;;;;;;;8.63;5.10;;;7.90;99.90;;;;;;5051662;28;21007;-72
2023/01/04 07:37:27;;;;;;;11.00;4.60;;;8.00;99.90;;;;;;5053849;28;21070;-73
2023/01/04 07:40:13;;;;;;;6.07;4.43;;;8.00;99.90;;;;;;5047654;28;20451;-72
2023/01/04 07:42:59;;;;;;;9.47;5.10;;;7.90;99.90;;;;;;5049146;28;20440;-72
2023/01/04 07:45:46;;;;;;;6.33;4.60;;;7.90;99.90;;;;;;5055716;28;20995;-73
2023/01/04 07:48:32;;;;;;;7.17;4.57;;;7.80;99.90;;;;;;5044805;28;20452;-73
2023/01/04 07:51:17;;;;;;;6.47;4.77;;;7.80;99.90;;;;;;5052102;28;20447;-72
2023/01/04 07:54:03;;;;;;;9.60;4.80;;;7.80;99.90;;;;;;5048495;28;20432;-72
2023/01/04 07:56:49;;;;;;;11.50;5.83;;;7.80;99.90;;;;;;5056019;28;20421;-73
2023/01/04 07:59:34;;;;;;;10.87;6.03;;;7.80;99.90;;;;;;5039742;28;20452;-72
2023/01/04 08:02:21;;;;;;;11.47;4.93;;;7.80;99.90;;;;;;5057482;28;20876;-73
2023/01/04 08:05:07;;;;;;;9.50;5.80;;;7.80;99.90;;;;;;5053842;28;20426;-72
2023/01/04 08:07:53;;;;;;;7.70;5.30;;;7.90;99.90;;;;;;5044228;28;20430;-73
2023/01/04 08:10:38;;;;;;;6.73;4.60;;;7.90;99.90;;;;;;5049597;28;20448;-72
2023/01/04 08:13:24;;;;;;;17.30;4.70;;;7.80;99.90;;;;;;5052918;28;20499;-72
2023/01/04 08:16:19;;;;;;;7.97;4.33;;;7.80;99.90;;;;;;5050955;28;20560;-72
2023/01/04 08:19:09;;;;;;;6.20;4.40;;;7.80;99.90;;;;;;5044198;28;20447;-72
2023/01/04 08:21:54;;;;;;;7.00;4.87;;;7.80;99.90;;;;;;5047081;28;20486;-72
2023/01/04 08:24:40;;;;;;;7.50;5.10;;;7.80;99.90;;;;;;5052708;28;20466;-73
2023/01/04 08:27:26;;;;;;;8.80;4.83;;;7.90;99.90;;;;;;5042707;28;21015;-73
2023/01/04 08:30:12;;;;;;;7.00;4.53;;;7.90;99.90;;;;;;5045026;28;20525;-73
2023/01/04 08:32:58;;;;;;;6.30;4.93;;;7.90;99.90;;;;;;5048689;28;20480;-73
2023/01/04 08:35:45;;;;;;;10.30;4.40;;;8.00;99.90;;;;;;5050339;28;20479;-73
2023/01/04 08:38:30;;;;;;;7.57;4.30;;;8.00;99.90;;;;;;5047472;28;20491;-73
2023/01/04 08:41:17;;;;;;;7.47;4.90;;;8.00;99.90;;;;;;5049540;28;20817;-73
2023/01/04 08:44:02;;;;;;;5.97;4.30;;;8.00;99.90;;;;;;5050892;28;20446;-72
2023/01/04 08:46:49;;;;;;;4.43;3.17;;;8.00;99.90;;;;;;5049122;28;20443;-73
2023/01/04 08:49:35;;;;;;;6.00;3.90;;;7.90;99.90;;;;;;5047280;28;20447;-72
2023/01/04 08:52:22;;;;;;;7.37;3.53;;;7.90;99.90;;;;;;5051623;28;20463;-72
2023/01/04 08:55:08;;;;;;;5.17;3.27;;;7.90;99.90;;;;;;5053520;28;20550;-73
2023/01/04 08:57:54;;;;;;;13.03;6.17;;;8.00;99.90;;;;;;5044933;28;20864;-73
2023/01/04 09:00:39;;;;;;;5.40;2.97;;;8.00;99.90;;;;;;5052140;28;20434;-74
2023/01/04 09:03:25;;;;;;;7.13;3.23;;;8.00;99.90;;;;;;5045929;28;20899;-73
2023/01/04 09:06:13;;;;;;;4.53;2.93;;;8.10;99.90;;;;;;5046886;28;20552;-72
2023/01/04 09:09:00;;;;;;;4.67;2.60;;;8.10;99.90;;;;;;5044693;28;20452;-73
2023/01/04 09:11:45;;;;;;;4.50;2.73;;;8.10;99.90;;;;;;5051633;28;20445;-71
2023/01/04 09:14:31;;;;;;;5.90;2.37;;;8.10;99.90;;;;;;5047439;28;20463;-73
2023/01/04 09:17:17;;;;;;;2.83;2.23;;;8.10;99.90;;;;;;5036986;28;20447;-72
2023/01/04 09:20:03;;;;;;;4.50;2.40;;;8.10;99.90;;;;;;5050284;28;20534;-73
2023/01/04 09:22:48;;;;;;;5.10;2.20;;;8.20;99.90;;;;;;5049003;28;20805;-73
2023/01/04 09:25:38;;;;;;;4.00;2.53;;;8.20;99.90;;;;;;5047176;28;20594;-73
2023/01/04 09:28:23;;;;;;;4.63;2.10;;;8.30;99.90;;;;;;5052205;28;20465;-73
2023/01/04 09:31:11;;;;;;;6.37;1.73;;;8.30;99.90;;;;;;5052076;28;20482;-73
2023/01/04 09:33:58;;;;;;;3.57;1.77;;;8.40;99.90;;;;;;5059477;28;20584;-73
2023/01/04 09:36:44;;;;;;;5.43;2.07;;;8.40;99.90;;;;;;5047119;28;21095;-73
2023/01/04 09:39:30;;;;;;;2.83;1.80;;;8.40;99.90;;;;;;5046349;28;20427;-73
2023/01/04 09:42:26;;;;;;;2.37;1.50;;;8.40;99.90;;;;;;5050401;28;20922;-73
2023/01/04 09:45:17;;;;;;;2.23;1.60;;;8.50;99.90;;;;;;5045110;28;20620;-72
2023/01/04 09:48:07;;;;;;;6.30;2.17;;;8.40;99.90;;;;;;5040031;28;20503;-72
2023/01/04 09:50:58;;;;;;;3.33;1.90;;;8.50;99.90;;;;;;5047856;28;20502;-73
2023/01/04 09:53:47;;;;;;;2.83;1.93;;;8.50;99.90;;;;;;5050406;28;21064;-73
2023/01/04 09:56:34;;;;;;;4.23;1.90;;;8.50;99.90;;;;;;5047980;28;20453;-73
2023/01/04 09:59:29;;;;;;;5.30;1.77;;;8.50;99.90;;;;;;5047974;28;20428;-72
2023/01/04 10:02:21;;;;;;;4.03;1.87;;;8.50;99.90;;;;;;5053438;28;21207;-73
2023/01/04 10:05:08;;;;;;;2.57;1.50;;;8.50;99.90;;;;;;5057324;28;20501;-73
2023/01/04 10:07:54;;;;;;;5.60;1.80;;;8.50;99.90;;;;;;5042964;28;20562;-73
2023/01/04 10:10:51;;;;;;;6.83;2.10;;;8.60;99.90;;;;;;5054649;28;20423;-73
2023/01/04 10:14:10;;;;;;;3.40;1.80;;;8.60;99.90;;;;;;5048585;28;20475;-73
2023/01/04 10:17:08;;;;;;;4.47;1.77;;;8.60;99.90;;;;;;5041064;28;20558;-73
2023/01/04 10:20:36;;;;;;;6.23;1.90;;;8.60;99.90;;;;;;5049573;28;20479;-73
2023/01/04 10:23:35;;;;;;;3.90;2.33;;;8.70;99.90;;;;;;5056746;28;20423;-73
2023/01/04 10:26:25;;;;;;;4.57;1.77;;;8.70;99.90;;;;;;5040647;28;20463;-73
2023/01/04 10:29:49;;;;;;;9.40;1.90;;;8.70;99.90;;;;;;5051752;28;20455;-72
2023/01/04 10:32:41;;;;;;;4.17;1.80;;;8.70;99.90;;;;;;5044013;28;20479;-73
2023/01/04 10:35:28;;;;;;;3.60;1.80;;;8.70;99.90;;;;;;5044080;28;20490;-72
2023/01/04 10:38:17;;;;;;;4.13;1.92;;;8.80;99.90;;;;;;5045829;28;20514;-73
2023/01/04 10:41:10;;;;;;;3.17;1.83;;;8.80;99.90;;;;;;5047576;28;20204;-73
2023/01/04 10:44:05;;;;;;;2.53;1.70;;;8.90;99.90;;;;;;5046344;28;20909;-72
2023/01/04 10:46:57;;;;;;;4.13;2.00;;;8.80;99.90;;;;;;5038347;28;20445;-72
2023/01/04 10:49:50;;;;;;;3.00;1.67;;;8.90;99.90;;;;;;5044328;28;20458;-72
2023/01/04 10:52:41;;;;;;;6.40;2.73;;;8.80;99.90;;;;;;5053093;28;20958;-71
2023/01/04 10:55:31;;;;;;;8.23;5.00;;;8.80;99.90;;;;;;5048569;28;20466;-72
2023/01/04 10:58:23;;;;;;;9.00;7.80;;;8.80;99.90;;;;;;5045907;28;20657;-71
2023/01/04 11:01:14;;;;;;;24.60;7.90;;;8.80;99.90;;;;;;5047836;28;20924;-71
2023/01/04 11:04:05;;;;;;;5.43;2.97;;;8.80;99.90;;;;;;5047848;28;20449;-73
2023/01/04 11:06:59;;;;;;;31.63;11.77;;;8.90;99.90;;;;;;5050043;28;20448;-73
2023/01/04 11:09:50;;;;;;;6.90;4.77;;;8.90;99.90;;;;;;5053907;28;20443;-73
2023/01/04 11:12:35;;;;;;;7.40;4.57;;;8.90;99.90;;;;;;5047987;28;20467;-72
2023/01/04 11:15:21;;;;;;;2.50;1.73;;;8.90;99.90;;;;;;5051656;28;20569;-74
2023/01/04 11:18:08;;;;;;;9.13;6.70;;;8.90;99.90;;;;;;5048013;28;20517;-72
2023/01/04 11:20:54;;;;;;;4.30;2.40;;;8.90;99.90;;;;;;5049517;28;20452;-74
2023/01/04 11:23:41;;;;;;;3.40;2.33;;;8.90;99.90;;;;;;5047598;28;20439;-70
2023/01/04 11:26:32;;;;;;;2.77;1.83;;;9.00;99.90;;;;;;5046092;28;20471;-75
2023/01/04 11:29:32;;;;;;;5.17;2.20;;;8.90;99.90;;;;;;5049857;28;20504;-74
2023/01/04 11:32:23;;;;;;;2.60;1.93;;;8.90;99.90;;;;;;5053722;28;20931;-73
2023/01/04 11:35:09;;;;;;;3.97;2.33;;;8.90;99.90;;;;;;5057931;28;20492;-72
2023/01/04 11:38:11;;;;;;;9.60;2.40;;;8.90;99.90;;;;;;5044519;28;20447;-72
2023/01/04 11:41:04;;;;;;;3.17;1.63;;;8.90;99.90;;;;;;5052706;28;20952;-72
2023/01/04 11:43:57;;;;;;;2.70;1.70;;;9.00;99.90;;;;;;5057681;28;20488;-73
2023/01/04 11:46:43;;;;;;;4.90;2.47;;;9.00;99.90;;;;;;5048217;28;20494;-73
2023/01/04 11:49:34;;;;;;;9.03;2.57;;;9.00;99.90;;;;;;5048532;28;20987;-74
2023/01/04 11:52:30;;;;;;;3.17;2.30;;;9.00;99.90;;;;;;5052663;28;20428;-74
2023/01/04 11:55:17;;;;;;;6.60;2.63;;;8.90;99.90;;;;;;5057345;28;20566;-74
2023/01/04 11:58:10;;;;;;;8.63;5.40;;;9.00;99.90;;;;;;5048235;28;20451;-73
2023/01/04 12:00:57;;;;;;;4.33;2.10;;;9.10;99.90;;;;;;5059423;28;20792;-74
2023/01/04 12:03:43;;;;;;;3.70;1.90;;;9.10;99.90;;;;;;5062280;28;20406;-74
2023/01/04 12:06:37;;;;;;;2.57;1.80;;;9.10;99.90;;;;;;5051006;28;20937;-73
2023/01/04 12:09:23;;;;;;;6.33;2.47;;;9.20;99.90;;;;;;5046610;28;21454;-74
2023/01/04 12:12:13;;;;;;;6.80;3.70;;;9.20;99.90;;;;;;5058097;28;20438;-74
2023/01/04 12:15:07;;;;;;;5.60;2.03;;;9.20;99.90;;;;;;5061165;28;20466;-73
2023/01/04 12:17:57;;;;;;;4.73;2.60;;;9.20;99.90;;;;;;5043831;28;20448;-73
2023/01/04 12:20:43;;;;;;;6.80;1.83;;;9.20;99.90;;;;;;5061524;28;21034;-73
2023/01/04 12:23:29;;;;;;;2.70;1.90;;;9.30;99.90;;;;;;5053788;28;20423;-73
2023/01/04 12:26:15;;;;;;;7.70;2.00;;;9.30;99.90;;;;;;5042356;28;20457;-73
2023/01/04 12:29:38;;;;;;;8.60;2.50;;;9.40;99.90;;;;;;5047234;28;20514;-73
2023/01/04 12:32:45;;;;;;;4.30;2.37;;;9.50;99.90;;;;;;5047568;28;20443;-74
2023/01/04 12:36:05;;;;;;;5.93;2.43;;;9.50;99.90;;;;;;5054994;28;20475;-73
2023/01/04 12:39:06;;;;;;;2.33;1.73;;;9.50;99.90;;;;;;5046187;28;20435;-73
2023/01/04 12:42:18;;;;;;;3.13;2.60;;;9.60;99.90;;;;;;5160311;22;20574;-74
2023/01/04 12:45:20;;;;;;;3.13;1.53;;;9.60;99.90;;;;;;5087220;28;20473;-74
2023/01/04 12:51:37;;;;;;;5.07;2.70;;;9.60;99.90;;;;;;5102488;28;20448;-74
2023/01/04 12:54:30;;;;;;;5.97;2.50;;;9.70;99.90;;;;;;5094726;28;20476;-74
2023/01/04 12:57:30;;;;;;;6.83;2.90;;;9.70;99.90;;;;;;5087750;28;20527;-73
2023/01/04 13:00:17;;;;;;;3.33;2.20;;;9.70;99.90;;;;;;5090693;28;20488;-73
2023/01/04 13:03:44;;;;;;;2.80;1.97;;;9.70;99.90;;;;;;5106409;28;20438;-73
2023/01/04 13:06:32;;;;;;;2.90;2.10;;;9.70;99.90;;;;;;5084157;28;20821;-73
2023/01/04 13:09:21;;;;;;;4.17;2.03;;;9.80;99.90;;;;;;5099344;28;20425;-73
2023/01/04 13:12:23;;;;;;;3.30;1.90;;;9.80;99.90;;;;;;5094529;28;20969;-73
2023/01/04 13:15:19;;;;;;;4.13;2.67;;;9.80;99.90;;;;;;5089655;28;20468;-73
2023/01/04 13:18:15;;;;;;;3.10;2.00;;;9.80;99.90;;;;;;5082470;28;20566;-73
2023/01/04 13:21:09;;;;;;;4.57;1.80;;;9.70;99.90;;;;;;5093298;28;20560;-73
2023/01/04 13:23:56;;;;;;;5.80;1.63;;;9.70;99.90;;;;;;5088860;28;20526;-73
2023/01/04 13:26:47;;;;;;;4.27;2.20;;;9.70;99.90;;;;;;5083252;28;20445;-74
2023/01/04 13:29:34;;;;;;;2.30;1.83;;;9.70;99.90;;;;;;5090787;28;20474;-73
2023/01/04 13:32:24;;;;;;;5.90;2.20;;;9.70;99.90;;;;;;5090721;28;20812;-73
2023/01/04 13:35:13;;;;;;;6.23;2.70;;;9.70;99.90;;;;;;5095560;28;20470;-73
2023/01/04 13:38:00;;;;;;;4.67;2.00;;;9.70;99.90;;;;;;5084300;28;20995;-73
2023/01/04 13:40:47;;;;;;;2.80;2.20;;;9.60;99.90;;;;;;5082338;28;20493;-73
2023/01/04 13:44:02;;;;;;;3.17;2.30;;;9.60;99.90;;;;;;5088391;28;20437;-73
2023/01/04 13:46:50;;;;;;;4.03;2.50;;;9.60;99.90;;;;;;5083461;28;20445;-73
2023/01/04 13:49:38;;;;;;;2.30;1.63;;;9.60;99.90;;;;;;5081817;28;20438;-73
2023/01/04 13:52:24;;;;;;;3.10;2.17;;;9.60;99.90;;;;;;5092810;28;20461;-73
2023/01/04 13:55:18;;;;;;;3.10;2.10;;;9.60;99.90;;;;;;5086529;28;20543;-73
2023/01/04 13:58:06;;;;;;;2.40;1.97;;;9.50;99.90;;;;;;5087699;28;20449;-74
2023/01/04 14:00:55;;;;;;;3.07;1.90;;;9.50;99.90;;;;;;5084604;28;20489;-73
2023/01/04 14:03:44;;;;;;;5.20;2.10;;;9.50;99.90;;;;;;5097432;28;20502;-73
2023/01/04 14:06:33;;;;;;;4.00;2.27;;;9.50;99.90;;;;;;5078736;28;21100;-73
2023/01/04 14:09:22;;;;;;;2.30;1.90;;;9.60;99.90;;;;;;5089969;28;20799;-73
2023/01/04 14:12:15;;;;;;;5.93;2.30;;;9.50;99.90;;;;;;5089086;28;20818;-73
2023/01/04 14:15:12;;;;;;;2.93;2.00;;;9.50;99.90;;;;;;5092101;28;20473;-73
2023/01/04 14:17:58;;;;;;;3.23;2.03;;;9.50;99.90;;;;;;5085211;28;20441;-73
2023/01/04 14:20:44;;;;;;;2.53;2.10;;;9.50;99.90;;;;;;5084239;28;20488;-73
2023/01/04 14:23:34;;;;;;;4.83;1.90;;;9.50;99.90;;;;;;5084381;28;20441;-73
2023/01/04 14:26:30;;;;;;;6.47;2.27;;;9.50;99.90;;;;;;5081999;28;20442;-74
2023/01/04 14:29:31;;;;;;;3.10;2.17;;;9.60;99.90;;;;;;5088747;28;20918;-73
2023/01/04 14:32:16;;;;;;;3.57;1.87;;;9.60;99.90;;;;;;5091065;28;20563;-74
2023/01/04 14:35:12;;;;;;;3.70;2.20;;;9.50;99.90;;;;;;5086098;28;20452;-73
2023/01/04 14:38:03;;;;;;;4.90;2.63;;;9.50;99.90;;;;;;5087875;28;20453;-73
2023/01/04 14:40:49;;;;;;;4.30;1.80;;;9.60;99.90;;;;;;5086017;28;20488;-73
2023/01/04 14:43:37;;;;;;;3.20;1.83;;;9.60;99.90;;;;;;5089193;28;20438;-73
2023/01/04 14:46:23;;;;;;;6.00;2.30;;;9.50;99.90;;;;;;5088309;28;20456;-74
2023/01/04 14:49:09;;;;;;;3.77;2.23;;;9.60;99.90;;;;;;5097161;28;20871;-73
2023/01/04 14:51:56;;;;;;;4.37;2.50;;;9.60;99.90;;;;;;5089633;28;20476;-73
2023/01/04 14:54:42;;;;;;;5.80;2.20;;;9.60;99.90;;;;;;5082930;28;20484;-73
2023/01/04 14:57:28;;;;;;;2.63;1.70;;;9.60;99.90;;;;;;5097727;28;20815;-73
2023/01/04 15:00:15;;;;;;;4.60;2.47;;;9.70;99.90;;;;;;5102323;28;20803;-73
2023/01/04 15:03:02;;;;;;;4.70;2.20;;;9.60;99.90;;;;;;5096724;28;20430;-73
2023/01/04 15:05:47;;;;;;;4.00;2.20;;;9.60;99.90;;;;;;5095321;28;20423;-72
2023/01/04 15:08:34;;;;;;;3.73;2.30;;;9.60;99.90;;;;;;5100880;28;20443;-72
2023/01/04 15:11:20;;;;;;;3.00;1.90;;;9.60;99.90;;;;;;5090506;28;20674;-72
2023/01/04 15:14:05;;;;;;;11.17;2.20;;;9.70;99.90;;;;;;5089672;28;20473;-74
2023/01/04 15:16:51;;;;;;;3.37;1.63;;;9.70;99.90;;;;;;5094889;28;20457;-74
2023/01/04 15:19:38;;;;;;;3.00;2.20;;;9.60;99.90;;;;;;5085769;28;21065;-73
2023/01/04 15:22:25;;;;;;;3.80;1.83;;;9.70;99.90;;;;;;5085763;28;20818;-74
2023/01/04 15:25:11;;;;;;;2.40;1.30;;;9.60;99.90;;;;;;5081894;28;20461;-74
2023/01/04 15:27:57;;;;;;;4.63;2.17;;;9.60;99.90;;;;;;5092201;28;20466;-74
2023/01/04 15:30:43;;;;;;;6.57;2.80;;;9.70;99.90;;;;;;5093838;28;21098;-74
2023/01/04 15:33:31;;;;;;;4.33;2.10;;;9.70;99.90;;;;;;5093221;28;20428;-74
2023/01/04 15:36:18;;;;;;;2.73;1.90;;;9.70;99.90;;;;;;5086753;28;20434;-74